sensor_id;sensor_type;location;lat;lon;timestamp;temperature;humidity
75387;DHT22;63966;47.914;22.266;2024-02-15T00:01:43;-0.41;84.03
75387;DHT22;63966;47.914;22.266;2024-02-15T00:04:46;-0.41;83.77
75387;DHT22;63966;47.914;22.266;2024-02-15T00:07:50;-0.50;84.31
75387;DHT22;63966;47.914;22.266;2024-02-15T00:10:53;-0.43;84.22
75387;DHT22;63966;47.914;22.266;2024-02-15T00:13:57;-0.40;83.96
75387;DHT22;63966;47.914;22.266;2024-02-15T00:17:00;-0.44;83.80
75387;DHT22;63966;47.914;22.266;2024-02-15T00:20:05;-0.36;83.30
75387;DHT22;63966;47.914;22.266;2024-02-15T00:23:12;-0.25;82.88
75387;DHT22;63966;47.914;22.266;2024-02-15T00:26:16;-0.50;83.06
75387;DHT22;63966;47.914;22.266;2024-02-15T00:29:19;-0.40;83.06
75387;DHT22;63966;47.914;22.266;2024-02-15T00:32:23;-0.50;83.02
75387;DHT22;63966;47.914;22.266;2024-02-15T00:35:27;-0.52;83.07
75387;DHT22;63966;47.914;22.266;2024-02-15T00:38:34;-0.58;82.79
75387;DHT22;63966;47.914;22.266;2024-02-15T00:41:39;-0.58;82.07
75387;DHT22;63966;47.914;22.266;2024-02-15T00:44:45;-0.80;82.53
75387;DHT22;63966;47.914;22.266;2024-02-15T00:47:49;-0.73;82.47
75387;DHT22;63966;47.914;22.266;2024-02-15T00:50:52;-0.85;82.72
75387;DHT22;63966;47.914;22.266;2024-02-15T00:53:56;-1.04;83.19
75387;DHT22;63966;47.914;22.266;2024-02-15T00:56:59;-1.09;83.48
75387;DHT22;63966;47.914;22.266;2024-02-15T01:00:04;-1.01;83.45
75387;DHT22;63966;47.914;22.266;2024-02-15T01:03:09;-1.04;83.82
75387;DHT22;63966;47.914;22.266;2024-02-15T01:06:13;-1.09;83.88
75387;DHT22;63966;47.914;22.266;2024-02-15T01:09:16;-1.08;83.97
75387;DHT22;63966;47.914;22.266;2024-02-15T01:12:21;-1.09;83.99
75387;DHT22;63966;47.914;22.266;2024-02-15T01:15:25;-1.12;84.28
75387;DHT22;63966;47.914;22.266;2024-02-15T01:18:28;-1.22;84.72
75387;DHT22;63966;47.914;22.266;2024-02-15T01:21:33;-1.29;84.90
75387;DHT22;63966;47.914;22.266;2024-02-15T01:24:36;-1.16;85.04
75387;DHT22;63966;47.914;22.266;2024-02-15T01:27:40;-1.32;85.36
75387;DHT22;63966;47.914;22.266;2024-02-15T01:30:43;-1.20;85.19
75387;DHT22;63966;47.914;22.266;2024-02-15T01:33:47;-1.35;85.60
75387;DHT22;63966;47.914;22.266;2024-02-15T01:36:51;-1.25;85.43
75387;DHT22;63966;47.914;22.266;2024-02-15T01:39:55;-1.23;85.63
75387;DHT22;63966;47.914;22.266;2024-02-15T01:42:58;-1.17;85.29
75387;DHT22;63966;47.914;22.266;2024-02-15T01:46:09;-1.11;84.39
75387;DHT22;63966;47.914;22.266;2024-02-15T01:49:15;-0.95;83.75
75387;DHT22;63966;47.914;22.266;2024-02-15T01:52:19;-1.08;83.24
75387;DHT22;63966;47.914;22.266;2024-02-15T01:55:22;-1.15;83.21
75387;DHT22;63966;47.914;22.266;2024-02-15T01:58:30;-1.29;82.80
75387;DHT22;63966;47.914;22.266;2024-02-15T02:01:35;-1.38;83.21
75387;DHT22;63966;47.914;22.266;2024-02-15T02:04:39;-1.22;82.94
75387;DHT22;63966;47.914;22.266;2024-02-15T02:07:43;-1.23;83.01
75387;DHT22;63966;47.914;22.266;2024-02-15T02:10:46;-1.22;83.77
75387;DHT22;63966;47.914;22.266;2024-02-15T02:13:50;-1.19;83.90
75387;DHT22;63966;47.914;22.266;2024-02-15T02:16:55;-1.29;84.63
75387;DHT22;63966;47.914;22.266;2024-02-15T02:19:58;-1.26;84.54
75387;DHT22;63966;47.914;22.266;2024-02-15T02:23:15;-1.25;83.99
75387;DHT22;63966;47.914;22.266;2024-02-15T02:26:21;-1.19;83.15
75387;DHT22;63966;47.914;22.266;2024-02-15T02:29:25;-1.28;83.55
75387;DHT22;63966;47.914;22.266;2024-02-15T02:32:28;-1.25;83.56
75387;DHT22;63966;47.914;22.266;2024-02-15T02:35:33;-1.32;83.38
75387;DHT22;63966;47.914;22.266;2024-02-15T02:38:37;-1.47;83.86
75387;DHT22;63966;47.914;22.266;2024-02-15T02:41:41;-1.42;83.73
75387;DHT22;63966;47.914;22.266;2024-02-15T02:44:44;-1.43;84.00
75387;DHT22;63966;47.914;22.266;2024-02-15T02:47:54;-1.44;84.55
75387;DHT22;63966;47.914;22.266;2024-02-15T02:50:58;-1.47;84.81
75387;DHT22;63966;47.914;22.266;2024-02-15T02:54:01;-1.53;85.26
75387;DHT22;63966;47.914;22.266;2024-02-15T02:57:09;-1.54;84.82
75387;DHT22;63966;47.914;22.266;2024-02-15T03:00:15;-1.62;84.82
75387;DHT22;63966;47.914;22.266;2024-02-15T03:03:20;-1.64;85.03
75387;DHT22;63966;47.914;22.266;2024-02-15T03:06:23;-1.50;84.91
75387;DHT22;63966;47.914;22.266;2024-02-15T03:09:28;-1.46;84.63
75387;DHT22;63966;47.914;22.266;2024-02-15T03:12:32;-1.53;84.62
75387;DHT22;63966;47.914;22.266;2024-02-15T03:15:38;-1.43;84.32
75387;DHT22;63966;47.914;22.266;2024-02-15T03:18:42;-1.47;84.38
75387;DHT22;63966;47.914;22.266;2024-02-15T03:21:46;-1.57;85.38
75387;DHT22;63966;47.914;22.266;2024-02-15T03:24:50;-1.35;85.45
75387;DHT22;63966;47.914;22.266;2024-02-15T03:27:54;-1.36;85.85
75387;DHT22;63966;47.914;22.266;2024-02-15T03:30:59;-1.68;86.70
75387;DHT22;63966;47.914;22.266;2024-02-15T03:34:04;-1.57;86.45
75387;DHT22;63966;47.914;22.266;2024-02-15T03:37:08;-1.66;86.51
75387;DHT22;63966;47.914;22.266;2024-02-15T03:40:13;-1.74;86.36
75387;DHT22;63966;47.914;22.266;2024-02-15T03:43:17;-2.09;84.91
75387;DHT22;63966;47.914;22.266;2024-02-15T03:46:21;-2.42;86.11
75387;DHT22;63966;47.914;22.266;2024-02-15T03:49:25;-2.40;86.76
75387;DHT22;63966;47.914;22.266;2024-02-15T03:52:30;-2.52;87.87
75387;DHT22;63966;47.914;22.266;2024-02-15T03:55:33;-2.60;87.09
75387;DHT22;63966;47.914;22.266;2024-02-15T03:58:39;-2.43;86.84
75387;DHT22;63966;47.914;22.266;2024-02-15T04:01:42;-2.79;87.64
75387;DHT22;63966;47.914;22.266;2024-02-15T04:04:46;-2.64;87.58
75387;DHT22;63966;47.914;22.266;2024-02-15T04:07:52;-2.52;87.05
75387;DHT22;63966;47.914;22.266;2024-02-15T04:10:56;-2.46;87.20
75387;DHT22;63966;47.914;22.266;2024-02-15T04:14:00;-2.54;87.52
75387;DHT22;63966;47.914;22.266;2024-02-15T04:17:04;-2.52;87.74
75387;DHT22;63966;47.914;22.266;2024-02-15T04:20:09;-2.42;87.31
75387;DHT22;63966;47.914;22.266;2024-02-15T04:23:14;-2.54;86.49
75387;DHT22;63966;47.914;22.266;2024-02-15T04:26:17;-2.81;87.09
75387;DHT22;63966;47.914;22.266;2024-02-15T04:29:22;-2.91;86.76
75387;DHT22;63966;47.914;22.266;2024-02-15T04:32:26;-2.80;86.48
75387;DHT22;63966;47.914;22.266;2024-02-15T04:35:32;-2.92;87.15
75387;DHT22;63966;47.914;22.266;2024-02-15T04:38:36;-3.04;87.40
75387;DHT22;63966;47.914;22.266;2024-02-15T04:41:39;-3.12;86.81
75387;DHT22;63966;47.914;22.266;2024-02-15T04:44:43;-3.11;87.25
75387;DHT22;63966;47.914;22.266;2024-02-15T04:47:47;-2.61;87.50
75387;DHT22;63966;47.914;22.266;2024-02-15T04:50:53;-2.61;87.75
75387;DHT22;63966;47.914;22.266;2024-02-15T04:53:58;-2.64;87.80
75387;DHT22;63966;47.914;22.266;2024-02-15T04:57:01;-2.80;87.99
75387;DHT22;63966;47.914;22.266;2024-02-15T05:00:05;-2.64;87.84
75387;DHT22;63966;47.914;22.266;2024-02-15T05:03:14;-2.77;86.58
75387;DHT22;63966;47.914;22.266;2024-02-15T05:06:17;-2.84;87.54
75387;DHT22;63966;47.914;22.266;2024-02-15T05:09:22;-3.28;88.99
75387;DHT22;63966;47.914;22.266;2024-02-15T05:12:26;-3.22;89.45
75387;DHT22;63966;47.914;22.266;2024-02-15T05:15:29;-3.08;89.68
75387;DHT22;63966;47.914;22.266;2024-02-15T05:18:34;-3.05;88.73
75387;DHT22;63966;47.914;22.266;2024-02-15T05:21:39;-3.23;88.05
75387;DHT22;63966;47.914;22.266;2024-02-15T05:24:42;-3.38;87.83
75387;DHT22;63966;47.914;22.266;2024-02-15T05:27:45;-3.40;87.69
75387;DHT22;63966;47.914;22.266;2024-02-15T05:30:49;-3.28;87.18
75387;DHT22;63966;47.914;22.266;2024-02-15T05:33:54;-3.23;87.46
75387;DHT22;63966;47.914;22.266;2024-02-15T05:36:57;-3.00;87.36
75387;DHT22;63966;47.914;22.266;2024-02-15T05:40:01;-2.79;86.91
75387;DHT22;63966;47.914;22.266;2024-02-15T05:43:04;-2.76;87.55
75387;DHT22;63966;47.914;22.266;2024-02-15T05:46:10;-2.26;87.07
75387;DHT22;63966;47.914;22.266;2024-02-15T05:49:13;-1.13;83.31
75387;DHT22;63966;47.914;22.266;2024-02-15T05:52:20;0.05;78.10
75387;DHT22;63966;47.914;22.266;2024-02-15T05:55:24;0.90;73.50
75387;DHT22;63966;47.914;22.266;2024-02-15T05:58:30;1.97;69.74
75387;DHT22;63966;47.914;22.266;2024-02-15T06:01:33;2.66;65.26
75387;DHT22;63966;47.914;22.266;2024-02-15T06:04:36;2.72;64.67
75387;DHT22;63966;47.914;22.266;2024-02-15T06:07:40;2.32;66.04
75387;DHT22;63966;47.914;22.266;2024-02-15T06:10:44;2.89;64.59
75387;DHT22;63966;47.914;22.266;2024-02-15T06:13:47;3.58;62.49
75387;DHT22;63966;47.914;22.266;2024-02-15T06:16:51;4.42;61.36
75387;DHT22;63966;47.914;22.266;2024-02-15T06:19:58;5.28;59.28
75387;DHT22;63966;47.914;22.266;2024-02-15T06:23:03;6.07;55.82
75387;DHT22;63966;47.914;22.266;2024-02-15T06:26:08;6.63;54.43
75387;DHT22;63966;47.914;22.266;2024-02-15T06:29:11;6.11;55.67
75387;DHT22;63966;47.914;22.266;2024-02-15T06:32:33;6.11;57.53
75387;DHT22;63966;47.914;22.266;2024-02-15T06:35:55;6.29;57.03
75387;DHT22;63966;47.914;22.266;2024-02-15T06:39:18;6.55;55.88
75387;DHT22;63966;47.914;22.266;2024-02-15T06:42:40;6.82;56.07
75387;DHT22;63966;47.914;22.266;2024-02-15T06:45:47;7.74;53.54
75387;DHT22;63966;47.914;22.266;2024-02-15T06:48:51;8.01;53.78
75387;DHT22;63966;47.914;22.266;2024-02-15T06:51:56;9.01;51.89
75387;DHT22;63966;47.914;22.266;2024-02-15T06:55:02;9.54;50.54
75387;DHT22;63966;47.914;22.266;2024-02-15T06:58:08;10.15;49.69
75387;DHT22;63966;47.914;22.266;2024-02-15T07:01:11;10.18;48.82
75387;DHT22;63966;47.914;22.266;2024-02-15T07:04:18;10.39;49.28
75387;DHT22;63966;47.914;22.266;2024-02-15T07:07:24;11.12;48.48
75387;DHT22;63966;47.914;22.266;2024-02-15T07:10:27;11.52;46.90
75387;DHT22;63966;47.914;22.266;2024-02-15T07:13:32;13.07;43.19
75387;DHT22;63966;47.914;22.266;2024-02-15T07:16:35;13.72;42.88
75387;DHT22;63966;47.914;22.266;2024-02-15T07:19:45;13.07;44.05
75387;DHT22;63966;47.914;22.266;2024-02-15T07:22:53;13.90;42.68
75387;DHT22;63966;47.914;22.266;2024-02-15T07:25:57;14.19;41.94
75387;DHT22;63966;47.914;22.266;2024-02-15T07:29:00;12.73;45.46
75387;DHT22;63966;47.914;22.266;2024-02-15T07:32:05;13.07;46.03
75387;DHT22;63966;47.914;22.266;2024-02-15T07:35:10;13.69;43.21
75387;DHT22;63966;47.914;22.266;2024-02-15T07:38:14;13.82;43.28
75387;DHT22;63966;47.914;22.266;2024-02-15T07:41:26;12.88;45.83
75387;DHT22;63966;47.914;22.266;2024-02-15T07:44:31;14.17;43.01
75387;DHT22;63966;47.914;22.266;2024-02-15T07:47:36;13.57;44.80
75387;DHT22;63966;47.914;22.266;2024-02-15T07:50:39;14.06;43.71
75387;DHT22;63966;47.914;22.266;2024-02-15T07:53:47;14.63;41.77
75387;DHT22;63966;47.914;22.266;2024-02-15T07:56:51;14.22;42.26
75387;DHT22;63966;47.914;22.266;2024-02-15T07:59:55;13.10;44.99
75387;DHT22;63966;47.914;22.266;2024-02-15T08:02:59;12.03;47.55
75387;DHT22;63966;47.914;22.266;2024-02-15T08:06:04;11.06;51.82
75387;DHT22;63966;47.914;22.266;2024-02-15T08:09:12;10.25;52.76
75387;DHT22;63966;47.914;22.266;2024-02-15T08:12:37;10.22;53.98
75387;DHT22;63966;47.914;22.266;2024-02-15T08:15:42;9.35;57.14
75387;DHT22;63966;47.914;22.266;2024-02-15T08:18:47;9.28;58.21
75387;DHT22;63966;47.914;22.266;2024-02-15T08:21:52;9.33;60.36
75387;DHT22;63966;47.914;22.266;2024-02-15T08:24:55;8.71;61.41
75387;DHT22;63966;47.914;22.266;2024-02-15T08:27:59;7.17;65.26
75387;DHT22;63966;47.914;22.266;2024-02-15T08:31:08;7.67;64.40
75387;DHT22;63966;47.914;22.266;2024-02-15T08:34:14;8.16;62.15
75387;DHT22;63966;47.914;22.266;2024-02-15T08:37:18;8.10;61.73
75387;DHT22;63966;47.914;22.266;2024-02-15T08:40:22;8.26;62.32
75387;DHT22;63966;47.914;22.266;2024-02-15T08:43:29;8.10;62.84
75387;DHT22;63966;47.914;22.266;2024-02-15T08:46:32;8.19;62.80
75387;DHT22;63966;47.914;22.266;2024-02-15T08:49:36;8.53;59.85
75387;DHT22;63966;47.914;22.266;2024-02-15T08:52:41;8.57;60.11
75387;DHT22;63966;47.914;22.266;2024-02-15T08:55:45;8.51;59.50
75387;DHT22;63966;47.914;22.266;2024-02-15T08:58:48;8.47;60.44
75387;DHT22;63966;47.914;22.266;2024-02-15T09:01:52;8.46;59.80
75387;DHT22;63966;47.914;22.266;2024-02-15T09:04:57;8.46;60.13
75387;DHT22;63966;47.914;22.266;2024-02-15T09:08:02;8.47;60.66
75387;DHT22;63966;47.914;22.266;2024-02-15T09:11:07;8.59;61.29
75387;DHT22;63966;47.914;22.266;2024-02-15T09:14:15;8.42;60.68
75387;DHT22;63966;47.914;22.266;2024-02-15T09:17:19;8.74;62.65
75387;DHT22;63966;47.914;22.266;2024-02-15T09:20:22;8.91;60.17
75387;DHT22;63966;47.914;22.266;2024-02-15T09:23:28;9.08;58.59
75387;DHT22;63966;47.914;22.266;2024-02-15T09:26:32;8.95;56.42
75387;DHT22;63966;47.914;22.266;2024-02-15T09:29:35;9.25;56.92
75387;DHT22;63966;47.914;22.266;2024-02-15T09:32:43;9.39;56.57
75387;DHT22;63966;47.914;22.266;2024-02-15T09:35:49;9.38;55.77
75387;DHT22;63966;47.914;22.266;2024-02-15T09:38:53;9.11;55.58
75387;DHT22;63966;47.914;22.266;2024-02-15T09:41:57;9.11;57.38
75387;DHT22;63966;47.914;22.266;2024-02-15T09:45:05;9.50;55.71
75387;DHT22;63966;47.914;22.266;2024-02-15T09:48:11;9.71;55.86
75387;DHT22;63966;47.914;22.266;2024-02-15T09:51:21;9.53;54.47
75387;DHT22;63966;47.914;22.266;2024-02-15T09:54:25;9.86;53.15
75387;DHT22;63966;47.914;22.266;2024-02-15T09:57:30;9.94;53.04
75387;DHT22;63966;47.914;22.266;2024-02-15T10:00:37;10.41;52.01
75387;DHT22;63966;47.914;22.266;2024-02-15T10:03:42;10.43;52.25
75387;DHT22;63966;47.914;22.266;2024-02-15T10:06:46;10.56;52.63
75387;DHT22;63966;47.914;22.266;2024-02-15T10:09:49;10.19;54.14
75387;DHT22;63966;47.914;22.266;2024-02-15T10:12:54;10.32;53.01
75387;DHT22;63966;47.914;22.266;2024-02-15T10:15:58;10.60;52.27
75387;DHT22;63966;47.914;22.266;2024-02-15T10:19:11;10.46;53.58
75387;DHT22;63966;47.914;22.266;2024-02-15T10:22:16;10.56;52.01
75387;DHT22;63966;47.914;22.266;2024-02-15T10:25:19;9.97;53.77
75387;DHT22;63966;47.914;22.266;2024-02-15T10:28:23;10.04;54.26
75387;DHT22;63966;47.914;22.266;2024-02-15T10:31:27;10.09;53.39
75387;DHT22;63966;47.914;22.266;2024-02-15T10:34:31;10.08;55.12
75387;DHT22;63966;47.914;22.266;2024-02-15T10:37:36;10.41;53.32
75387;DHT22;63966;47.914;22.266;2024-02-15T10:40:41;10.66;52.70
75387;DHT22;63966;47.914;22.266;2024-02-15T10:43:46;10.70;54.59
75387;DHT22;63966;47.914;22.266;2024-02-15T10:46:51;10.05;52.87
75387;DHT22;63966;47.914;22.266;2024-02-15T10:49:55;10.34;53.64
75387;DHT22;63966;47.914;22.266;2024-02-15T10:52:59;9.88;53.44
75387;DHT22;63966;47.914;22.266;2024-02-15T10:56:27;9.91;53.20
75387;DHT22;63966;47.914;22.266;2024-02-15T10:59:38;10.24;53.01
75387;DHT22;63966;47.914;22.266;2024-02-15T11:02:54;10.08;53.74
75387;DHT22;63966;47.914;22.266;2024-02-15T11:06:02;9.63;54.09
75387;DHT22;63966;47.914;22.266;2024-02-15T11:09:06;9.30;54.65
75387;DHT22;63966;47.914;22.266;2024-02-15T11:12:13;9.28;54.34
75387;DHT22;63966;47.914;22.266;2024-02-15T11:15:41;9.59;54.59
75387;DHT22;63966;47.914;22.266;2024-02-15T11:18:46;9.46;55.06
75387;DHT22;63966;47.914;22.266;2024-02-15T11:21:56;9.70;54.05
75387;DHT22;63966;47.914;22.266;2024-02-15T11:25:00;9.84;55.03
75387;DHT22;63966;47.914;22.266;2024-02-15T11:31:54;9.80;54.15
75387;DHT22;63966;47.914;22.266;2024-02-15T11:35:08;9.95;53.18
75387;DHT22;63966;47.914;22.266;2024-02-15T11:38:28;10.25;52.71
75387;DHT22;63966;47.914;22.266;2024-02-15T11:41:31;10.04;51.60
75387;DHT22;63966;47.914;22.266;2024-02-15T11:44:35;10.07;51.77
75387;DHT22;63966;47.914;22.266;2024-02-15T11:47:40;9.91;51.93
75387;DHT22;63966;47.914;22.266;2024-02-15T11:50:47;10.12;51.95
75387;DHT22;63966;47.914;22.266;2024-02-15T11:54:06;10.14;53.05
75387;DHT22;63966;47.914;22.266;2024-02-15T11:57:11;10.24;51.95
75387;DHT22;63966;47.914;22.266;2024-02-15T12:00:25;10.14;53.94
75387;DHT22;63966;47.914;22.266;2024-02-15T12:03:53;10.08;52.41
75387;DHT22;63966;47.914;22.266;2024-02-15T12:07:16;9.95;52.53
75387;DHT22;63966;47.914;22.266;2024-02-15T12:10:41;10.05;52.99
75387;DHT22;63966;47.914;22.266;2024-02-15T12:14:03;10.25;53.08
75387;DHT22;63966;47.914;22.266;2024-02-15T12:17:25;10.25;52.59
75387;DHT22;63966;47.914;22.266;2024-02-15T12:20:49;10.15;54.33
75387;DHT22;63966;47.914;22.266;2024-02-15T12:23:53;10.09;53.56
75387;DHT22;63966;47.914;22.266;2024-02-15T12:27:01;10.09;54.20
75387;DHT22;63966;47.914;22.266;2024-02-15T12:30:07;10.18;53.30
75387;DHT22;63966;47.914;22.266;2024-02-15T12:33:14;10.02;51.95
75387;DHT22;63966;47.914;22.266;2024-02-15T12:36:24;9.97;50.81
75387;DHT22;63966;47.914;22.266;2024-02-15T12:39:29;10.07;51.95
75387;DHT22;63966;47.914;22.266;2024-02-15T12:42:38;10.16;52.07
75387;DHT22;63966;47.914;22.266;2024-02-15T12:45:43;10.05;52.04
75387;DHT22;63966;47.914;22.266;2024-02-15T12:48:46;10.22;53.16
75387;DHT22;63966;47.914;22.266;2024-02-15T12:51:52;10.07;53.75
75387;DHT22;63966;47.914;22.266;2024-02-15T12:58:16;10.26;53.25
75387;DHT22;63966;47.914;22.266;2024-02-15T13:01:20;10.18;52.32
75387;DHT22;63966;47.914;22.266;2024-02-15T13:04:24;10.24;52.48
75387;DHT22;63966;47.914;22.266;2024-02-15T13:07:30;10.28;52.50
75387;DHT22;63966;47.914;22.266;2024-02-15T13:10:34;10.22;52.70
75387;DHT22;63966;47.914;22.266;2024-02-15T13:13:37;9.99;52.94
75387;DHT22;63966;47.914;22.266;2024-02-15T13:16:41;10.19;52.81
75387;DHT22;63966;47.914;22.266;2024-02-15T13:19:47;10.07;52.41
75387;DHT22;63966;47.914;22.266;2024-02-15T13:22:53;10.11;52.40
75387;DHT22;63966;47.914;22.266;2024-02-15T13:25:57;10.24;52.88
75387;DHT22;63966;47.914;22.266;2024-02-15T13:29:08;9.98;53.05
75387;DHT22;63966;47.914;22.266;2024-02-15T13:32:12;9.98;52.83
75387;DHT22;63966;47.914;22.266;2024-02-15T13:35:18;10.14;52.68
75387;DHT22;63966;47.914;22.266;2024-02-15T13:38:24;10.21;52.72
75387;DHT22;63966;47.914;22.266;2024-02-15T13:41:31;10.29;51.98
75387;DHT22;63966;47.914;22.266;2024-02-15T13:44:35;10.02;52.66
75387;DHT22;63966;47.914;22.266;2024-02-15T13:47:40;10.08;53.04
75387;DHT22;63966;47.914;22.266;2024-02-15T13:50:49;10.12;52.58
75387;DHT22;63966;47.914;22.266;2024-02-15T13:53:56;10.04;52.86
75387;DHT22;63966;47.914;22.266;2024-02-15T13:57:01;10.14;53.42
75387;DHT22;63966;47.914;22.266;2024-02-15T14:00:09;10.12;52.58
75387;DHT22;63966;47.914;22.266;2024-02-15T14:03:18;10.21;53.14
75387;DHT22;63966;47.914;22.266;2024-02-15T14:06:26;9.91;53.89
75387;DHT22;63966;47.914;22.266;2024-02-15T14:09:30;9.90;54.49
75387;DHT22;63966;47.914;22.266;2024-02-15T14:12:38;9.83;54.66
75387;DHT22;63966;47.914;22.266;2024-02-15T14:15:42;9.88;53.74
75387;DHT22;63966;47.914;22.266;2024-02-15T14:18:46;9.71;54.42
75387;DHT22;63966;47.914;22.266;2024-02-15T14:21:53;9.87;54.19
75387;DHT22;63966;47.914;22.266;2024-02-15T14:25:02;9.97;53.44
75387;DHT22;63966;47.914;22.266;2024-02-15T14:28:30;9.87;53.50
75387;DHT22;63966;47.914;22.266;2024-02-15T14:31:34;9.81;53.67
75387;DHT22;63966;47.914;22.266;2024-02-15T14:34:56;9.81;53.32
75387;DHT22;63966;47.914;22.266;2024-02-15T14:37:59;9.64;54.19
75387;DHT22;63966;47.914;22.266;2024-02-15T14:41:05;9.99;52.90
75387;DHT22;63966;47.914;22.266;2024-02-15T14:44:11;9.99;53.47
75387;DHT22;63966;47.914;22.266;2024-02-15T14:47:15;10.14;54.50
75387;DHT22;63966;47.914;22.266;2024-02-15T14:50:19;9.83;54.44
75387;DHT22;63966;47.914;22.266;2024-02-15T14:53:24;9.84;54.45
75387;DHT22;63966;47.914;22.266;2024-02-15T14:56:27;9.77;53.79
75387;DHT22;63966;47.914;22.266;2024-02-15T14:59:31;9.56;54.48
75387;DHT22;63966;47.914;22.266;2024-02-15T15:02:34;9.44;55.60
75387;DHT22;63966;47.914;22.266;2024-02-15T15:05:38;9.39;55.13
75387;DHT22;63966;47.914;22.266;2024-02-15T15:09:00;9.32;55.04
75387;DHT22;63966;47.914;22.266;2024-02-15T15:12:22;9.35;55.39
75387;DHT22;63966;47.914;22.266;2024-02-15T15:15:42;9.30;56.03
75387;DHT22;63966;47.914;22.266;2024-02-15T15:18:46;9.26;55.64
75387;DHT22;63966;47.914;22.266;2024-02-15T15:21:51;9.23;55.20
75387;DHT22;63966;47.914;22.266;2024-02-15T15:24:54;9.22;55.06
75387;DHT22;63966;47.914;22.266;2024-02-15T15:27:58;9.14;55.58
75387;DHT22;63966;47.914;22.266;2024-02-15T15:31:01;9.02;55.82
75387;DHT22;63966;47.914;22.266;2024-02-15T15:34:05;9.02;56.09
75387;DHT22;63966;47.914;22.266;2024-02-15T15:37:10;8.91;56.56
75387;DHT22;63966;47.914;22.266;2024-02-15T15:40:15;8.81;56.84
75387;DHT22;63966;47.914;22.266;2024-02-15T15:43:19;8.77;57.13
75387;DHT22;63966;47.914;22.266;2024-02-15T15:46:23;8.68;57.50
75387;DHT22;63966;47.914;22.266;2024-02-15T15:49:26;8.61;57.67
75387;DHT22;63966;47.914;22.266;2024-02-15T15:52:30;8.46;58.30
75387;DHT22;63966;47.914;22.266;2024-02-15T15:55:34;8.49;59.33
75387;DHT22;63966;47.914;22.266;2024-02-15T15:58:38;8.34;60.68
75387;DHT22;63966;47.914;22.266;2024-02-15T16:01:50;8.33;61.34
75387;DHT22;63966;47.914;22.266;2024-02-15T16:04:54;8.29;61.28
75387;DHT22;63966;47.914;22.266;2024-02-15T16:08:04;8.32;60.42
75387;DHT22;63966;47.914;22.266;2024-02-15T16:11:08;8.25;61.29
75387;DHT22;63966;47.914;22.266;2024-02-15T16:14:11;8.23;60.24
75387;DHT22;63966;47.914;22.266;2024-02-15T16:17:15;8.07;59.64
75387;DHT22;63966;47.914;22.266;2024-02-15T16:20:18;7.91;60.31
75387;DHT22;63966;47.914;22.266;2024-02-15T16:23:22;7.70;60.77
75387;DHT22;63966;47.914;22.266;2024-02-15T16:26:26;7.61;61.62
75387;DHT22;63966;47.914;22.266;2024-02-15T16:29:30;7.55;61.99
75387;DHT22;63966;47.914;22.266;2024-02-15T16:32:33;7.36;62.55
75387;DHT22;63966;47.914;22.266;2024-02-15T16:35:38;7.23;62.89
75387;DHT22;63966;47.914;22.266;2024-02-15T16:38:42;7.13;63.17
75387;DHT22;63966;47.914;22.266;2024-02-15T16:41:49;7.05;63.43
75387;DHT22;63966;47.914;22.266;2024-02-15T16:44:56;6.92;63.52
75387;DHT22;63966;47.914;22.266;2024-02-15T16:48:00;6.77;64.12
75387;DHT22;63966;47.914;22.266;2024-02-15T16:51:04;6.65;65.02
75387;DHT22;63966;47.914;22.266;2024-02-15T16:54:10;6.61;65.00
75387;DHT22;63966;47.914;22.266;2024-02-15T16:57:13;6.47;65.88
75387;DHT22;63966;47.914;22.266;2024-02-15T17:00:18;6.10;65.42
75387;DHT22;63966;47.914;22.266;2024-02-15T17:03:21;5.88;66.03
75387;DHT22;63966;47.914;22.266;2024-02-15T17:06:26;5.99;66.02
75387;DHT22;63966;47.914;22.266;2024-02-15T17:09:31;5.78;66.41
75387;DHT22;63966;47.914;22.266;2024-02-15T17:12:34;5.68;66.79
75387;DHT22;63966;47.914;22.266;2024-02-15T17:15:37;5.65;67.12
75387;DHT22;63966;47.914;22.266;2024-02-15T17:18:41;5.48;67.97
75387;DHT22;63966;47.914;22.266;2024-02-15T17:21:45;5.44;68.02
75387;DHT22;63966;47.914;22.266;2024-02-15T17:24:48;5.28;68.64
75387;DHT22;63966;47.914;22.266;2024-02-15T17:27:52;5.23;68.86
75387;DHT22;63966;47.914;22.266;2024-02-15T17:30:55;5.41;68.03
75387;DHT22;63966;47.914;22.266;2024-02-15T17:33:59;5.14;69.24
75387;DHT22;63966;47.914;22.266;2024-02-15T17:37:02;5.00;69.81
75387;DHT22;63966;47.914;22.266;2024-02-15T17:40:07;4.93;70.36
75387;DHT22;63966;47.914;22.266;2024-02-15T17:43:14;4.97;70.11
75387;DHT22;63966;47.914;22.266;2024-02-15T17:46:18;4.73;71.52
75387;DHT22;63966;47.914;22.266;2024-02-15T17:49:22;4.58;71.68
75387;DHT22;63966;47.914;22.266;2024-02-15T17:52:25;4.66;71.61
75387;DHT22;63966;47.914;22.266;2024-02-15T17:55:29;4.45;72.20
75387;DHT22;63966;47.914;22.266;2024-02-15T17:58:32;4.30;72.48
75387;DHT22;63966;47.914;22.266;2024-02-15T18:01:36;4.33;72.60
75387;DHT22;63966;47.914;22.266;2024-02-15T18:04:42;4.22;72.90
75387;DHT22;63966;47.914;22.266;2024-02-15T18:07:45;4.28;73.53
75387;DHT22;63966;47.914;22.266;2024-02-15T18:10:49;4.49;72.79
75387;DHT22;63966;47.914;22.266;2024-02-15T18:13:52;4.24;73.91
75387;DHT22;63966;47.914;22.266;2024-02-15T18:16:56;4.04;74.65
75387;DHT22;63966;47.914;22.266;2024-02-15T18:20:00;4.00;74.95
75387;DHT22;63966;47.914;22.266;2024-02-15T18:23:04;3.97;75.36
75387;DHT22;63966;47.914;22.266;2024-02-15T18:26:08;3.93;75.45
75387;DHT22;63966;47.914;22.266;2024-02-15T18:29:12;3.89;75.59
75387;DHT22;63966;47.914;22.266;2024-02-15T18:32:18;3.83;75.94
75387;DHT22;63966;47.914;22.266;2024-02-15T18:35:22;3.82;75.97
75387;DHT22;63966;47.914;22.266;2024-02-15T18:38:27;3.73;76.21
75387;DHT22;63966;47.914;22.266;2024-02-15T18:41:31;3.68;76.42
75387;DHT22;63966;47.914;22.266;2024-02-15T18:44:34;3.56;76.24
75387;DHT22;63966;47.914;22.266;2024-02-15T18:47:38;3.48;76.35
75387;DHT22;63966;47.914;22.266;2024-02-15T18:50:44;3.42;76.31
75387;DHT22;63966;47.914;22.266;2024-02-15T18:53:48;3.36;76.36
75387;DHT22;63966;47.914;22.266;2024-02-15T18:56:52;3.41;76.14
75387;DHT22;63966;47.914;22.266;2024-02-15T18:59:58;3.36;76.30
75387;DHT22;63966;47.914;22.266;2024-02-15T19:03:17;3.07;76.77
75387;DHT22;63966;47.914;22.266;2024-02-15T19:06:21;2.96;77.24
75387;DHT22;63966;47.914;22.266;2024-02-15T19:09:24;2.91;77.51
75387;DHT22;63966;47.914;22.266;2024-02-15T19:12:28;2.89;77.45
75387;DHT22;63966;47.914;22.266;2024-02-15T19:15:32;2.82;77.86
75387;DHT22;63966;47.914;22.266;2024-02-15T19:18:35;2.80;78.25
75387;DHT22;63966;47.914;22.266;2024-02-15T19:21:39;2.80;78.33
75387;DHT22;63966;47.914;22.266;2024-02-15T19:24:43;2.75;78.35
75387;DHT22;63966;47.914;22.266;2024-02-15T19:27:47;2.77;78.43
75387;DHT22;63966;47.914;22.266;2024-02-15T19:30:50;2.76;78.60